Time;durP1;ratioP1;P1;durP2;ratioP2;P2;SDS_P1;SDS_P2;PMS_P1;PMS_P2;Temp;Humidity;BMP_temperature;BMP_pressure;BME280_temperature;BME280_humidity;BME280_pressure;Samples;Min_cycle;Max_cycle;Signal;HPM_P1;HPM_P2
2022/05/26 00:01:12;;;;;;;11.32;7.15;;;16.50;99.90;;;;;;4955536;29;20527;-85
2022/05/26 00:03:42;;;;;;;10.68;6.97;;;16.50;99.90;;;;;;4955648;29;20125;-85
2022/05/26 00:06:09;;;;;;;13.67;7.40;;;16.50;99.90;;;;;;4955821;29;20031;-85
2022/05/26 00:08:37;;;;;;;8.80;7.45;;;16.50;99.90;;;;;;4955288;29;20032;-85
2022/05/26 00:11:09;;;;;;;13.70;8.07;;;16.50;99.90;;;;;;4955832;28;20412;-86
2022/05/26 00:13:37;;;;;;;11.00;7.80;;;16.50;99.90;;;;;;4955301;29;20055;-85
2022/05/26 00:16:03;;;;;;;10.43;7.95;;;16.50;99.90;;;;;;4955840;29;20466;-85
2022/05/26 00:18:29;;;;;;;10.68;8.00;;;16.40;99.90;;;;;;4955856;29;20122;-86
2022/05/26 00:20:54;;;;;;;13.77;8.52;;;16.40;99.90;;;;;;4955915;29;20132;-85
2022/05/26 00:23:20;;;;;;;12.25;7.75;;;16.40;99.90;;;;;;4939907;29;20130;-85
2022/05/26 00:25:46;;;;;;;10.95;8.10;;;16.40;99.90;;;;;;4955445;29;20487;-85
2022/05/26 00:28:11;;;;;;;12.32;8.23;;;16.30;99.90;;;;;;4956018;29;20068;-86
2022/05/26 00:30:37;;;;;;;9.23;7.90;;;16.30;99.90;;;;;;4956476;29;20039;-85
2022/05/26 00:33:05;;;;;;;9.68;7.97;;;16.30;99.90;;;;;;4955644;29;20035;-85
2022/05/26 00:35:34;;;;;;;11.55;8.38;;;16.20;99.90;;;;;;4955375;29;20547;-85
2022/05/26 00:38:04;;;;;;;11.70;8.00;;;16.30;99.90;;;;;;4955215;29;20031;-86
2022/05/26 00:40:30;;;;;;;9.93;7.80;;;16.20;99.90;;;;;;4955430;29;20517;-86
2022/05/26 00:42:57;;;;;;;10.23;7.35;;;16.20;99.90;;;;;;4955869;29;20031;-86
2022/05/26 00:45:22;;;;;;;9.80;8.13;;;16.20;99.90;;;;;;4955243;29;20046;-85
2022/05/26 00:47:49;;;;;;;11.45;7.75;;;16.20;99.90;;;;;;4954898;29;20451;-86
2022/05/26 00:50:25;;;;;;;12.70;8.60;;;16.20;99.90;;;;;;4954647;29;20035;-85
2022/05/26 00:52:56;;;;;;;12.40;8.32;;;16.20;99.90;;;;;;4956368;29;20023;-85
2022/05/26 00:55:26;;;;;;;;;;;16.20;99.90;;;;;;4955387;29;20031;-86
2022/05/26 00:58:20;;;;;;;11.30;8.00;;;16.20;99.90;;;;;;4954000;29;19917;-86
2022/05/26 01:00:47;;;;;;;11.05;8.07;;;16.20;99.90;;;;;;4951633;29;20036;-86
2022/05/26 01:03:12;;;;;;;11.38;8.00;;;16.20;99.90;;;;;;4954751;29;20468;-85
2022/05/26 01:05:48;;;;;;;8.57;7.15;;;16.20;99.90;;;;;;4938700;29;20027;-86
2022/05/26 01:08:47;;;;;;;12.15;8.25;;;16.20;99.90;;;;;;4954956;29;20027;-85
2022/05/26 01:11:14;;;;;;;10.48;8.23;;;16.20;99.90;;;;;;4934076;29;20043;-85
2022/05/26 01:13:46;;;;;;;13.57;8.30;;;16.20;99.90;;;;;;4938158;29;20407;-85
2022/05/26 01:16:43;;;;;;;11.35;8.77;;;16.20;99.90;;;;;;4954316;29;20079;-86
2022/05/26 01:20:07;;;;;;;10.77;8.27;;;16.20;99.90;;;;;;4947151;29;20035;-85
2022/05/26 01:23:11;;;;;;;18.70;8.65;;;16.20;99.90;;;;;;4930689;29;20476;-86
2022/05/26 01:25:42;;;;;;;12.30;8.75;;;16.20;99.90;;;;;;4938453;29;20043;-86
2022/05/26 01:28:30;;;;;;;14.30;8.57;;;16.20;99.90;;;;;;4955302;29;20023;-85
2022/05/26 01:31:07;;;;;;;12.57;8.30;;;16.20;99.90;;;;;;4938296;29;20129;-86
2022/05/26 01:33:54;;;;;;;14.57;8.82;;;16.20;99.90;;;;;;4954570;29;20357;-85
2022/05/26 01:36:53;;;;;;;12.88;8.95;;;16.10;99.90;;;;;;4954389;29;20065;-86
2022/05/26 01:39:37;;;;;;;17.13;9.52;;;16.10;99.90;;;;;;4955455;29;20468;-85
2022/05/26 01:42:29;;;;;;;11.60;8.40;;;16.10;99.90;;;;;;4955227;29;20510;-85
2022/05/26 01:45:22;;;;;;;13.55;8.73;;;16.20;99.90;;;;;;4954250;29;20539;-86
2022/05/26 01:48:13;;;;;;;12.38;8.57;;;16.10;99.90;;;;;;4955366;29;20024;-86
2022/05/26 01:50:51;;;;;;;15.20;9.27;;;16.20;99.90;;;;;;4954397;29;20415;-85
2022/05/26 01:53:35;;;;;;;17.00;9.77;;;16.10;99.90;;;;;;4955207;29;20113;-85
2022/05/26 01:56:28;;;;;;;17.17;9.65;;;16.20;99.90;;;;;;4954961;29;20035;-85
2022/05/26 01:59:03;;;;;;;16.38;9.90;;;16.10;99.90;;;;;;4953855;29;20559;-85
2022/05/26 02:01:35;;;;;;;13.20;8.65;;;16.10;99.90;;;;;;4960172;28;20035;-85
2022/05/26 02:04:02;;;;;;;13.82;9.13;;;16.20;99.90;;;;;;4953739;29;20027;-85
2022/05/26 02:06:35;;;;;;;16.42;9.88;;;16.10;99.90;;;;;;4955106;29;20122;-85
2022/05/26 02:09:14;;;;;;;15.32;9.23;;;16.10;99.90;;;;;;4953666;29;20034;-85
2022/05/26 02:12:01;;;;;;;17.25;9.52;;;16.10;99.90;;;;;;4953726;29;20023;-85
2022/05/26 02:14:38;;;;;;;18.42;9.52;;;16.20;99.90;;;;;;4955153;29;20019;-86
2022/05/26 02:17:13;;;;;;;16.67;9.27;;;16.20;99.90;;;;;;4953486;29;20246;-85
2022/05/26 02:19:45;;;;;;;15.55;10.38;;;16.10;99.90;;;;;;4955503;29;20015;-85
2022/05/26 02:22:35;;;;;;;18.52;9.70;;;16.20;99.90;;;;;;4937988;29;20042;-87
2022/05/26 02:25:17;;;;;;;17.67;9.95;;;16.10;99.90;;;;;;4954123;29;20492;-86
2022/05/26 02:27:44;;;;;;;16.50;9.13;;;16.10;99.90;;;;;;4954808;29;20086;-86
2022/05/26 02:30:12;;;;;;;15.85;9.85;;;16.10;99.90;;;;;;4952917;29;20383;-87
2022/05/26 02:32:42;;;;;;;18.05;10.48;;;16.10;99.90;;;;;;4936179;29;20031;-86
2022/05/26 02:35:21;;;;;;;15.10;9.60;;;16.10;99.90;;;;;;4955273;28;20031;-86
2022/05/26 02:37:50;;;;;;;14.38;9.32;;;16.10;99.90;;;;;;4955996;29;20086;-86
2022/05/26 02:40:16;;;;;;;20.27;9.85;;;16.10;99.90;;;;;;4956452;29;20087;-86
2022/05/26 02:42:47;;;;;;;22.17;10.88;;;16.10;99.90;;;;;;4957243;29;20031;-85
2022/05/26 02:45:14;;;;;;;;;;;16.10;99.90;;;;;;4957830;29;20071;-85
2022/05/26 02:48:13;;;;;;;19.50;9.10;;;16.10;99.90;;;;;;4957169;29;20333;-86
2022/05/26 02:51:20;;;;;;;20.80;9.98;;;16.10;99.90;;;;;;4957174;29;20484;-85
2022/05/26 02:54:14;;;;;;;17.83;9.80;;;16.10;99.90;;;;;;4937231;29;20126;-86
2022/05/26 02:57:14;;;;;;;22.52;10.20;;;16.10;99.90;;;;;;4957103;29;20039;-85
2022/05/26 03:00:02;;;;;;;22.65;9.60;;;16.20;99.90;;;;;;4958428;29;20031;-86
2022/05/26 03:03:03;;;;;;;20.60;10.77;;;16.20;99.90;;;;;;4937885;29;20483;-85
2022/05/26 03:05:38;;;;;;;19.47;9.60;;;16.10;99.90;;;;;;4940983;29;20055;-86
2022/05/26 03:08:08;;;;;;;22.73;9.80;;;16.10;99.90;;;;;;4956566;29;20027;-86
2022/05/26 03:10:34;;;;;;;19.73;9.50;;;16.20;99.90;;;;;;4956938;29;20026;-86
2022/05/26 03:13:01;;;;;;;16.42;8.38;;;16.20;99.90;;;;;;4940791;29;20528;-86
2022/05/26 03:15:31;;;;;;;17.85;8.65;;;16.20;99.90;;;;;;4958289;29;20388;-85
2022/05/26 03:18:02;;;;;;;23.30;8.70;;;16.20;99.90;;;;;;4956656;29;20031;-86
2022/05/26 03:20:28;;;;;;;;;;;16.20;99.90;;;;;;4957320;29;20408;-86
2022/05/26 03:22:55;;;;;;;25.00;9.77;;;16.20;99.90;;;;;;4957116;29;19993;-86
2022/05/26 03:25:21;;;;;;;22.50;9.27;;;16.20;99.90;;;;;;4956559;29;20027;-86
2022/05/26 03:27:46;;;;;;;25.65;9.02;;;16.20;99.90;;;;;;4956980;29;20031;-86
2022/05/26 03:30:12;;;;;;;19.20;8.63;;;16.20;99.90;;;;;;4940680;29;20043;-86
2022/05/26 03:32:38;;;;;;;22.38;8.65;;;16.20;99.90;;;;;;4940778;29;20026;-86
2022/05/26 03:43:41;;;;;;;22.15;8.30;;;16.20;99.90;;;;;;4908991;29;20499;-86
2022/05/26 03:46:07;;;;;;;17.63;7.50;;;16.20;99.90;;;;;;4898201;29;20040;-86
2022/05/26 03:48:33;;;;;;;18.95;8.05;;;16.10;99.90;;;;;;4936362;29;20043;-86
2022/05/26 03:50:59;;;;;;;22.65;8.60;;;16.10;99.90;;;;;;4940270;29;20034;-85
2022/05/26 03:53:25;;;;;;;16.50;7.82;;;16.10;99.90;;;;;;4956488;29;20035;-86
2022/05/26 03:55:51;;;;;;;24.40;7.90;;;16.10;99.90;;;;;;4940218;29;20136;-86
2022/05/26 03:58:17;;;;;;;24.13;8.45;;;16.10;99.90;;;;;;4956346;29;20043;-86
2022/05/26 04:00:43;;;;;;;22.05;8.40;;;16.10;99.90;;;;;;4956516;29;20054;-86
2022/05/26 04:03:09;;;;;;;27.63;9.18;;;16.10;99.90;;;;;;4956286;29;20368;-86
2022/05/26 04:05:34;;;;;;;17.83;7.20;;;16.10;99.90;;;;;;4957281;29;20472;-86
2022/05/26 04:08:00;;;;;;;19.10;7.20;;;16.10;99.90;;;;;;4955884;29;20041;-86
2022/05/26 04:10:27;;;;;;;19.15;7.63;;;16.10;99.90;;;;;;4955747;29;20019;-86
2022/05/26 04:12:53;;;;;;;24.42;7.85;;;16.10;99.90;;;;;;4938771;28;20055;-86
2022/05/26 04:15:19;;;;;;;20.88;7.55;;;16.10;99.90;;;;;;4924076;29;20090;-86
2022/05/26 04:17:45;;;;;;;20.67;7.63;;;16.10;99.90;;;;;;4955912;29;20038;-86
2022/05/26 04:20:14;;;;;;;25.30;8.20;;;16.10;99.90;;;;;;4956956;29;20035;-86
2022/05/26 04:22:40;;;;;;;20.10;7.70;;;16.10;99.90;;;;;;4957140;29;20051;-86
2022/05/26 04:25:06;;;;;;;19.20;7.05;;;16.10;99.90;;;;;;4955505;29;20031;-86
2022/05/26 04:27:33;;;;;;;21.02;7.60;;;16.10;99.90;;;;;;4956553;29;20486;-86
2022/05/26 04:30:01;;;;;;;21.00;7.18;;;16.10;99.90;;;;;;4955769;29;20032;-86
2022/05/26 04:32:27;;;;;;;25.67;7.80;;;16.10;99.90;;;;;;4955128;29;20376;-85
2022/05/26 04:34:53;;;;;;;21.63;7.63;;;16.10;99.90;;;;;;4956578;29;20147;-86
2022/05/26 04:37:20;;;;;;;27.70;8.40;;;16.10;99.90;;;;;;4939223;29;20534;-86
2022/05/26 04:39:46;;;;;;;19.05;6.85;;;16.00;99.90;;;;;;4923563;29;20062;-86
2022/05/26 04:42:12;;;;;;;27.75;7.20;;;16.00;99.90;;;;;;4939395;29;20059;-86
2022/05/26 04:44:40;;;;;;;24.00;7.32;;;16.00;99.90;;;;;;4938902;29;20031;-85
2022/05/26 04:47:07;;;;;;;24.88;7.55;;;16.00;99.90;;;;;;4954969;29;20059;-87
2022/05/26 04:49:35;;;;;;;20.10;6.95;;;16.00;99.90;;;;;;4939219;29;20038;-86
2022/05/26 04:52:01;;;;;;;24.13;7.18;;;16.00;99.90;;;;;;4955644;29;20031;-86
2022/05/26 04:54:27;;;;;;;23.38;7.18;;;16.00;99.90;;;;;;4956169;29;20027;-86
2022/05/26 04:57:02;;;;;;;22.58;6.82;;;16.00;99.90;;;;;;4939235;29;20038;-85
2022/05/26 04:59:29;;;;;;;25.27;8.57;;;16.00;99.90;;;;;;4939319;29;20042;-86
2022/05/26 05:01:55;;;;;;;21.55;6.78;;;16.00;99.90;;;;;;4956674;29;20117;-87
2022/05/26 05:04:25;;;;;;;25.73;8.02;;;16.00;99.90;;;;;;4923155;29;20059;-87
2022/05/26 05:06:55;;;;;;;24.10;7.13;;;16.00;99.90;;;;;;4954928;29;20472;-87
2022/05/26 05:09:27;;;;;;;26.00;7.38;;;16.10;99.90;;;;;;4956378;29;20086;-86
2022/05/26 05:11:52;;;;;;;21.33;6.80;;;16.10;99.90;;;;;;4958730;28;20031;-85
2022/05/26 05:14:19;;;;;;;29.42;7.45;;;16.10;99.90;;;;;;4956491;29;20102;-85
2022/05/26 05:16:45;;;;;;;28.20;7.93;;;16.10;99.90;;;;;;4955958;29;20035;-86
2022/05/26 05:19:17;;;;;;;22.33;7.43;;;16.10;99.90;;;;;;4955522;29;20035;-85
2022/05/26 05:22:03;;;;;;;24.58;6.97;;;16.10;99.90;;;;;;4955878;29;20023;-86
2022/05/26 05:24:38;;;;;;;21.50;7.10;;;16.10;99.90;;;;;;4938426;29;20031;-86
2022/05/26 05:27:11;;;;;;;25.60;6.72;;;16.10;99.90;;;;;;4955180;29;20035;-86
2022/05/26 05:29:40;;;;;;;23.05;7.75;;;16.10;99.90;;;;;;4955416;29;20075;-85
2022/05/26 05:32:19;;;;;;;24.90;7.75;;;16.10;99.90;;;;;;4955602;29;20091;-85
2022/05/26 05:34:53;;;;;;;25.10;7.55;;;16.10;99.90;;;;;;4956423;29;20419;-86
2022/05/26 05:37:19;;;;;;;28.80;7.15;;;16.10;99.90;;;;;;4956402;29;20055;-86
2022/05/26 05:39:45;;;;;;;22.52;6.53;;;16.10;99.90;;;;;;4957128;29;20066;-86
2022/05/26 05:42:11;;;;;;;23.73;6.97;;;16.10;99.90;;;;;;4956088;29;20031;-85
2022/05/26 05:44:37;;;;;;;22.63;6.70;;;16.20;99.90;;;;;;4941003;29;20047;-86
2022/05/26 05:47:03;;;;;;;22.10;6.60;;;16.20;99.90;;;;;;4956670;29;20038;-85
2022/05/26 05:49:31;;;;;;;22.60;7.80;;;16.20;99.90;;;;;;4940454;29;20372;-86
2022/05/26 05:52:05;;;;;;;23.92;7.85;;;16.20;99.90;;;;;;4957711;29;20565;-85
2022/05/26 05:54:31;;;;;;;21.67;6.43;;;16.20;99.90;;;;;;4943100;28;20055;-85
2022/05/26 05:56:57;;;;;;;19.02;5.97;;;16.20;99.90;;;;;;4982518;28;20074;-86
2022/05/26 05:59:23;;;;;;;21.40;6.68;;;16.30;99.90;;;;;;4978619;28;20031;-87
2022/05/26 06:01:49;;;;;;;26.42;7.32;;;16.30;99.90;;;;;;4975120;28;20090;-86
2022/05/26 06:04:15;;;;;;;21.77;6.50;;;16.30;99.90;;;;;;4925048;28;20369;-87
2022/05/26 06:06:43;;;;;;;25.02;7.70;;;16.30;99.90;;;;;;4960130;28;20034;-86
2022/05/26 06:09:13;;;;;;;24.77;6.70;;;16.30;99.90;;;;;;4980477;28;20380;-86
2022/05/26 06:11:40;;;;;;;19.43;5.90;;;16.30;99.90;;;;;;4955580;28;20110;-86
2022/05/26 06:14:06;;;;;;;21.88;6.82;;;16.30;99.90;;;;;;4956494;28;20282;-86
2022/05/26 06:16:32;;;;;;;23.13;5.80;;;16.30;99.90;;;;;;4965337;28;20082;-86
2022/05/26 06:18:58;;;;;;;19.98;5.85;;;16.30;99.90;;;;;;4938430;28;20522;-86
2022/05/26 06:21:24;;;;;;;20.83;6.13;;;16.30;99.90;;;;;;4973445;28;20061;-87
2022/05/26 06:23:51;;;;;;;22.63;6.97;;;16.40;99.90;;;;;;4943532;29;20031;-86
2022/05/26 06:26:17;;;;;;;21.50;5.78;;;16.40;99.90;;;;;;4960627;29;20031;-87
2022/05/26 06:31:27;;;;;;;18.70;5.82;;;16.40;99.90;;;;;;4954842;28;20097;-86
2022/05/26 06:39:20;;;;;;;20.25;5.97;;;16.50;99.90;;;;;;4968028;28;20509;-86
2022/05/26 06:44:30;;;;;;;18.40;5.22;;;16.50;99.90;;;;;;4961422;28;20507;-86
2022/05/26 06:46:56;;;;;;;15.93;4.78;;;16.50;99.90;;;;;;4975550;28;20541;-86
2022/05/26 06:49:22;;;;;;;15.02;4.82;;;16.60;99.90;;;;;;4959492;28;20118;-86
2022/05/26 06:51:47;;;;;;;20.40;5.78;;;16.60;99.90;;;;;;4966042;28;20035;-86
2022/05/26 06:54:13;;;;;;;16.05;5.10;;;16.60;99.90;;;;;;4962049;28;20031;-85
2022/05/26 06:56:39;;;;;;;17.77;4.00;;;16.70;99.90;;;;;;4945497;28;20058;-86
2022/05/26 06:59:05;;;;;;;15.02;4.20;;;16.70;99.90;;;;;;4945694;28;20411;-86
2022/05/26 07:01:31;;;;;;;12.70;4.00;;;16.70;99.90;;;;;;4961663;28;20031;-86
2022/05/26 07:03:56;;;;;;;14.55;4.05;;;16.80;99.90;;;;;;4944511;28;20030;-86
2022/05/26 07:06:26;;;;;;;12.05;3.42;;;16.80;99.90;;;;;;4944348;28;20030;-86
2022/05/26 07:08:53;;;;;;;10.77;3.72;;;16.90;99.90;;;;;;4978386;28;20026;-86
2022/05/26 07:11:19;;;;;;;14.68;3.40;;;17.00;99.90;;;;;;4978817;28;20019;-86
2022/05/26 07:13:46;;;;;;;31.77;5.80;;;17.00;99.90;;;;;;4978944;28;20493;-86
2022/05/26 07:16:12;;;;;;;15.93;4.10;;;17.10;99.90;;;;;;4961901;28;20027;-84
2022/05/26 07:18:39;;;;;;;14.07;3.58;;;17.10;99.90;;;;;;4977192;28;20027;-85
2022/05/26 07:21:06;;;;;;;16.77;5.65;;;17.10;99.90;;;;;;4959370;28;20534;-85
2022/05/26 07:23:34;;;;;;;17.42;4.13;;;17.20;99.90;;;;;;4959753;28;20386;-86
2022/05/26 07:26:05;;;;;;;11.32;3.97;;;17.20;99.90;;;;;;4977347;28;20031;-86
2022/05/26 07:28:33;;;;;;;11.85;4.00;;;17.20;99.90;;;;;;4959577;28;20517;-86
2022/05/26 07:30:58;;;;;;;13.73;3.80;;;17.20;99.90;;;;;;4959508;28;20031;-86
2022/05/26 07:33:24;;;;;;;12.63;3.33;;;17.30;99.90;;;;;;4959746;28;20030;-86
2022/05/26 07:35:50;;;;;;;10.68;3.08;;;17.40;99.90;;;;;;4943481;28;20462;-86
2022/05/26 07:43:58;;;;;;;7.88;3.13;;;17.50;99.90;;;;;;4957310;28;20031;-86
2022/05/26 07:46:24;;;;;;;13.25;3.58;;;17.60;99.90;;;;;;4976419;28;20117;-86
2022/05/26 07:48:51;;;;;;;11.75;3.55;;;17.60;99.90;;;;;;4961205;28;20060;-85
2022/05/26 07:51:19;;;;;;;9.25;3.30;;;17.60;99.90;;;;;;4939788;28;20027;-86
2022/05/26 07:53:46;;;;;;;10.75;2.92;;;17.70;99.90;;;;;;4953630;28;20031;-86
2022/05/26 07:56:12;;;;;;;11.15;2.80;;;17.70;99.90;;;;;;4942952;28;20121;-86
2022/05/26 07:58:37;;;;;;;10.52;2.65;;;17.80;99.90;;;;;;4955719;28;20105;-86
2022/05/26 08:01:04;;;;;;;10.45;2.70;;;17.80;99.90;;;;;;4937495;28;20110;-86
2022/05/26 08:03:30;;;;;;;10.77;2.92;;;17.90;99.90;;;;;;4962237;28;20106;-86
2022/05/26 08:05:56;;;;;;;12.25;2.92;;;17.90;99.90;;;;;;4979837;28;20062;-86
2022/05/26 08:08:22;;;;;;;9.60;2.83;;;17.90;99.90;;;;;;4963637;28;20022;-86
2022/05/26 08:10:48;;;;;;;12.57;3.42;;;17.90;99.90;;;;;;4955004;28;20041;-85
2022/05/26 08:13:14;;;;;;;12.70;3.60;;;18.00;99.90;;;;;;4950081;28;20121;-86
2022/05/26 08:15:40;;;;;;;10.85;3.75;;;18.00;99.90;;;;;;4958728;28;20129;-84
2022/05/26 08:18:06;;;;;;;10.48;3.60;;;18.00;99.90;;;;;;4942686;28;20038;-88
2022/05/26 08:20:32;;;;;;;9.02;3.08;;;18.00;99.90;;;;;;4977791;28;20035;-85
2022/05/26 08:22:59;;;;;;;10.23;2.72;;;18.00;99.90;;;;;;4928160;28;20466;-86
2022/05/26 08:25:26;;;;;;;12.07;2.53;;;18.10;99.90;;;;;;4961254;28;20042;-86
2022/05/26 08:27:52;;;;;;;8.63;2.60;;;18.10;99.90;;;;;;4974001;28;20034;-87
2022/05/26 08:30:18;;;;;;;6.95;2.00;;;18.20;99.90;;;;;;4939011;28;20027;-89
2022/05/26 08:32:44;;;;;;;8.32;2.60;;;18.20;99.90;;;;;;4960532;28;20089;-88
2022/05/26 08:35:10;;;;;;;8.27;2.38;;;18.30;99.90;;;;;;4954031;28;20471;-88
2022/05/26 08:37:39;;;;;;;8.70;2.70;;;18.30;99.90;;;;;;4953158;28;20047;-87
2022/05/26 08:40:08;;;;;;;6.68;2.38;;;18.40;99.90;;;;;;4961414;28;20054;-87
2022/05/26 08:42:35;;;;;;;8.32;2.17;;;18.40;98.90;;;;;;4958754;28;20368;-87
2022/05/26 08:45:14;;;;;;;9.35;2.95;;;18.50;98.00;;;;;;4955262;28;20110;-87
2022/05/26 08:47:45;;;;;;;7.65;2.10;;;18.50;98.00;;;;;;4977466;28;20058;-87
2022/05/26 08:50:24;;;;;;;4.32;1.55;;;18.50;97.70;;;;;;4974581;28;20109;-86
2022/05/26 08:53:15;;;;;;;6.82;2.15;;;18.50;97.60;;;;;;4977885;28;20027;-87
2022/05/26 08:55:45;;;;;;;;;;;18.60;97.50;;;;;;4977442;28;20038;-89
2022/05/26 08:58:17;;;;;;;6.32;1.90;;;18.50;97.50;;;;;;4969992;28;19906;-87
2022/05/26 09:00:46;;;;;;;7.22;1.90;;;18.60;97.60;;;;;;4970893;28;20023;-87
2022/05/26 09:03:35;;;;;;;7.28;1.80;;;18.60;97.30;;;;;;4951600;28;20011;-87
2022/05/26 09:06:09;;;;;;;5.93;1.70;;;18.60;97.30;;;;;;4954068;28;20027;-87
2022/05/26 09:14:41;;;;;;;10.00;2.55;;;18.70;96.80;;;;;;4956655;28;20054;-88
2022/05/26 09:17:10;;;;;;;5.30;1.70;;;18.80;96.20;;;;;;4942888;28;20027;-87
2022/05/26 09:19:42;;;;;;;8.35;2.47;;;18.80;96.20;;;;;;4954916;28;20053;-87
2022/05/26 09:22:29;;;;;;;6.68;2.10;;;18.90;95.80;;;;;;4969310;28;20031;-88
2022/05/26 09:24:56;;;;;;;6.45;2.88;;;18.90;95.40;;;;;;4976952;28;20029;-87
2022/05/26 09:27:34;;;;;;;9.02;2.22;;;18.90;95.00;;;;;;4977991;28;20117;-87
2022/05/26 09:30:23;;;;;;;7.13;2.38;;;18.90;95.20;;;;;;4978246;28;20026;-88
2022/05/26 09:32:54;;;;;;;9.73;2.40;;;18.90;95.20;;;;;;4978330;28;20026;-88
2022/05/26 09:35:20;;;;;;;9.82;3.33;;;18.90;95.10;;;;;;4962637;28;20473;-89
2022/05/26 09:37:49;;;;;;;11.68;3.38;;;19.00;94.90;;;;;;4996783;28;20024;-87
2022/05/26 09:40:24;;;;;;;8.88;2.65;;;19.00;95.30;;;;;;4978091;28;20049;-88
2022/05/26 09:42:59;;;;;;;8.30;2.65;;;19.00;95.50;;;;;;4976988;28;20046;-87
2022/05/26 09:45:26;;;;;;;6.35;2.42;;;19.10;95.60;;;;;;4977413;28;20037;-87
2022/05/26 09:48:00;;;;;;;7.47;2.30;;;19.20;95.70;;;;;;4994287;28;20034;-88
2022/05/26 09:50:41;;;;;;;7.78;2.22;;;19.20;95.00;;;;;;4977473;28;20129;-90
2022/05/26 09:53:10;;;;;;;4.97;1.70;;;19.30;94.70;;;;;;4977470;28;20373;-88
2022/05/26 09:55:54;;;;;;;5.55;1.27;;;19.40;93.00;;;;;;4977428;28;20038;-89
2022/05/26 09:58:41;;;;;;;4.68;1.52;;;19.40;93.60;;;;;;4978059;28;20113;-88
2022/05/26 10:01:35;;;;;;;7.45;1.55;;;19.50;93.70;;;;;;4977573;28;20466;-87
2022/05/26 10:04:59;;;;;;;4.75;1.52;;;19.60;93.40;;;;;;4962639;28;20068;-87
2022/05/26 10:07:40;;;;;;;3.85;1.08;;;19.70;93.00;;;;;;4956545;28;20047;-88
2022/05/26 10:10:10;;;;;;;6.93;1.95;;;19.80;93.00;;;;;;4976981;28;20330;-87
2022/05/26 10:13:03;;;;;;;2.75;1.00;;;19.90;92.70;;;;;;4995500;28;20050;-88
2022/05/26 10:15:48;;;;;;;8.60;1.50;;;19.90;92.60;;;;;;4977349;28;20035;-89
2022/05/26 10:18:49;;;;;;;3.67;1.20;;;20.00;92.30;;;;;;4977652;28;20034;-89
2022/05/26 10:21:33;;;;;;;;;;;20.00;91.70;;;;;;4939263;29;20031;-88
2022/05/26 10:23:58;;;;;;;6.50;1.70;;;20.00;90.90;;;;;;4975544;28;19905;-89
2022/05/26 10:26:46;;;;;;;8.18;1.90;;;19.90;90.50;;;;;;4977782;28;20453;-88
2022/05/26 10:29:18;;;;;;;5.95;1.52;;;19.90;90.90;;;;;;4977797;28;20030;-88
2022/05/26 10:31:59;;;;;;;9.05;2.05;;;20.00;91.00;;;;;;4976799;28;20406;-90
2022/05/26 10:35:01;;;;;;;6.13;1.48;;;20.00;91.20;;;;;;4994305;28;20109;-88
2022/05/26 10:37:47;;;;;;;5.80;1.77;;;19.90;91.20;;;;;;4970253;28;20034;-89
2022/05/26 10:40:33;;;;;;;6.25;1.60;;;19.90;91.20;;;;;;4977558;28;20081;-87
2022/05/26 10:43:29;;;;;;;8.27;1.80;;;19.90;91.10;;;;;;4995373;28;20097;-88
2022/05/26 10:45:58;;;;;;;5.20;1.55;;;19.90;91.00;;;;;;4964399;28;20282;-87
2022/05/26 10:48:49;;;;;;;7.63;1.63;;;20.00;89.80;;;;;;4978450;28;20034;-89
2022/05/26 10:51:17;;;;;;;3.90;1.40;;;20.10;90.10;;;;;;4977563;28;20121;-89
2022/05/26 10:54:06;;;;;;;6.80;1.55;;;20.10;89.50;;;;;;4977519;28;20048;-89
2022/05/26 10:57:16;;;;;;;6.82;1.75;;;20.10;89.60;;;;;;4982387;28;20030;-89
2022/05/26 11:00:06;;;;;;;5.13;1.50;;;20.10;90.10;;;;;;4961871;28;20038;-88
2022/05/26 11:02:50;;;;;;;6.25;1.60;;;20.20;86.50;;;;;;5001866;28;20049;-89
2022/05/26 11:05:29;;;;;;;7.05;1.85;;;20.20;86.20;;;;;;4983118;28;20037;-88
2022/05/26 11:08:17;;;;;;;6.38;1.70;;;20.10;87.00;;;;;;4981247;28;20463;-88
2022/05/26 11:10:48;;;;;;;6.75;1.83;;;20.20;88.10;;;;;;4997668;28;20045;-88
2022/05/26 11:13:19;;;;;;;5.72;1.60;;;20.20;88.30;;;;;;4980160;28;20088;-89
2022/05/26 11:18:50;;;;;;;7.70;1.73;;;20.20;88.40;;;;;;4997613;28;20322;-88
2022/05/26 11:21:23;;;;;;;7.07;1.95;;;20.30;88.10;;;;;;4980941;28;20037;-87
2022/05/26 11:23:51;;;;;;;7.13;1.80;;;20.30;87.70;;;;;;4979767;28;20092;-90
2022/05/26 11:26:35;;;;;;;8.75;1.45;;;20.40;87.20;;;;;;4981141;28;20038;-88
2022/05/26 11:29:15;;;;;;;3.78;1.20;;;20.40;87.10;;;;;;4998193;28;20030;-88
2022/05/26 11:37:43;;;;;;;6.57;1.70;;;20.50;85.80;;;;;;4967832;28;20062;-89
2022/05/26 11:40:11;;;;;;;4.55;1.50;;;20.50;84.00;;;;;;4941386;29;20027;-88
2022/05/26 11:42:59;;;;;;;;;;;;;;;;;;;;;
2022/05/26 11:45:33;;;;;;;4.88;1.42;;;20.50;83.40;;;;;;4959325;28;20437;-87
2022/05/26 11:48:04;;;;;;;4.70;1.70;;;20.50;84.70;;;;;;4956601;28;20027;-87
2022/05/26 11:50:48;;;;;;;3.20;0.90;;;20.50;85.20;;;;;;4943692;29;20016;-88
2022/05/26 11:53:36;;;;;;;9.02;1.80;;;20.60;85.50;;;;;;4959421;28;20382;-89
2022/05/26 11:56:26;;;;;;;7.93;1.60;;;20.70;82.10;;;;;;4959584;28;20042;-88
2022/05/26 11:59:26;;;;;;;6.22;1.33;;;20.80;81.20;;;;;;4960424;28;20030;-88
2022/05/26 12:02:00;;;;;;;4.27;1.07;;;20.80;81.20;;;;;;4959954;28;20030;-88
2022/05/26 12:04:32;;;;;;;6.53;1.63;;;20.80;79.10;;;;;;4960279;28;20094;-90
2022/05/26 12:06:58;;;;;;;3.97;1.15;;;20.80;78.90;;;;;;4960285;28;20402;-89
2022/05/26 12:10:10;;;;;;;3.78;1.00;;;20.80;79.60;;;;;;4970147;28;20034;-89
2022/05/26 12:12:40;;;;;;;5.57;1.23;;;20.80;80.30;;;;;;4941369;28;20055;-89
2022/05/26 12:15:38;;;;;;;5.53;1.80;;;20.90;78.80;;;;;;4966913;28;20505;-90
2022/05/26 12:18:20;;;;;;;5.35;1.40;;;20.90;79.20;;;;;;4966718;28;20031;-89
2022/05/26 12:21:11;;;;;;;5.05;1.33;;;21.00;79.60;;;;;;4965992;28;20027;-91
2022/05/26 12:23:39;;;;;;;9.48;1.75;;;21.00;79.90;;;;;;4965942;28;20033;-88
2022/05/26 12:26:54;;;;;;;7.85;1.90;;;21.10;79.70;;;;;;4958310;28;20038;-88
2022/05/26 12:30:11;;;;;;;6.30;1.30;;;21.20;80.00;;;;;;4977785;28;20019;-88
2022/05/26 12:32:40;;;;;;;6.00;1.40;;;21.20;78.90;;;;;;4990536;28;20029;-88
2022/05/26 12:35:24;;;;;;;5.10;1.30;;;21.20;78.60;;;;;;4946157;28;20035;-90
2022/05/26 12:38:08;;;;;;;6.50;1.40;;;21.20;78.40;;;;;;4979192;28;20475;-87
2022/05/26 12:40:50;;;;;;;7.22;1.83;;;21.30;79.50;;;;;;4967698;28;20054;-88
2022/05/26 12:43:58;;;;;;;6.45;1.48;;;21.40;79.30;;;;;;4984555;28;20019;-88
2022/05/26 12:47:07;;;;;;;6.20;2.15;;;21.40;78.20;;;;;;4939328;28;20050;-87
2022/05/26 12:50:14;;;;;;;5.00;1.20;;;21.50;79.10;;;;;;4956844;28;20517;-88
2022/05/26 12:52:57;;;;;;;7.05;1.88;;;21.50;79.60;;;;;;4926713;29;20079;-88
2022/05/26 12:55:38;;;;;;;6.88;1.60;;;21.60;79.40;;;;;;4929958;29;20570;-89
2022/05/26 12:58:15;;;;;;;;;;;21.60;79.20;;;;;;4954721;28;20489;-88
2022/05/26 13:00:43;;;;;;;7.20;2.13;;;21.60;77.00;;;;;;4967058;28;19953;-88
2022/05/26 13:03:21;;;;;;;6.57;1.67;;;21.60;75.90;;;;;;4963497;28;20105;-87
2022/05/26 13:05:53;;;;;;;5.57;1.60;;;21.50;76.50;;;;;;4967952;28;20506;-88
2022/05/26 13:08:22;;;;;;;6.35;1.83;;;21.50;77.10;;;;;;4955960;29;20487;-88
2022/05/26 13:11:01;;;;;;;7.82;2.00;;;21.50;78.10;;;;;;4948963;28;20106;-89
2022/05/26 13:13:43;;;;;;;8.25;2.00;;;21.60;77.60;;;;;;4956041;28;20050;-89
2022/05/26 13:16:30;;;;;;;5.75;1.77;;;21.60;77.20;;;;;;4955683;29;20472;-90
2022/05/26 13:19:05;;;;;;;8.15;2.42;;;21.60;77.50;;;;;;4955139;28;20118;-89
2022/05/26 13:21:42;;;;;;;7.65;1.80;;;21.60;78.40;;;;;;4956577;29;20031;-89
2022/05/26 13:24:24;;;;;;;5.85;2.08;;;21.70;78.40;;;;;;4959030;29;20027;-90
2022/05/26 13:27:03;;;;;;;7.82;2.47;;;21.70;79.10;;;;;;4963078;29;20059;-92
2022/05/26 13:29:31;;;;;;;6.57;2.13;;;21.70;78.70;;;;;;4947688;29;20047;-89
2022/05/26 13:34:48;;;;;;;8.65;2.97;;;21.80;79.30;;;;;;4966152;29;20042;-89
2022/05/26 13:37:19;;;;;;;7.95;2.60;;;21.90;78.20;;;;;;4949942;29;20071;-90
2022/05/26 13:40:00;;;;;;;7.32;2.88;;;21.90;78.10;;;;;;4934102;29;20035;-89
2022/05/26 13:42:26;;;;;;;6.90;2.55;;;21.80;77.30;;;;;;4947616;29;20088;-88
2022/05/26 13:44:52;;;;;;;10.30;3.05;;;21.80;78.40;;;;;;4946613;29;20032;-89
2022/05/26 13:47:20;;;;;;;8.25;2.78;;;21.80;79.30;;;;;;4958570;28;20027;-89
2022/05/26 13:50:07;;;;;;;10.52;3.35;;;21.80;80.00;;;;;;4951287;28;20053;-88
2022/05/26 13:52:38;;;;;;;11.25;3.65;;;21.90;80.40;;;;;;4965457;28;20034;-89
2022/05/26 13:55:15;;;;;;;9.82;3.63;;;21.90;80.60;;;;;;4963364;28;20320;-88
2022/05/26 13:57:57;;;;;;;10.00;4.65;;;21.90;80.40;;;;;;4962854;28;20026;-88
2022/05/26 14:00:33;;;;;;;9.20;4.05;;;21.90;79.40;;;;;;4966985;28;20391;-88
2022/05/26 14:03:06;;;;;;;7.82;3.55;;;21.80;80.30;;;;;;4959780;28;20022;-88